Terminal Aerodrome Forecast
Issued by NWS Pueblo, CO

Home | Current Version | Previous Version | Text Only | Print | Product List | Glossary On
Versions: 1 2 3 4 5 6 7 8 9 10 11 12 13 14 15 16 17 18 19 20 21 22 23 24 25 26 27 28 29 30 31 32 33 34 35 36 37 38 39 40 41 42 43 44 45 46 47 48 49 50
415
FTUS45 KPUB 271136
TAFCOS
TAF
KCOS 271136Z 2712/2812 05005KT P6SM SCT070 BKN140
     FM271400 33007KT P6SM SCT070 BKN120
     FM271700 32012KT P6SM VCSH SCT050 BKN120
     FM272000 35015G30KT P6SM VCTS BKN050CB BKN120
     FM280200 36012KT P6SM SCT080 SCT120
     FM280400 01007KT P6SM SCT100=

USA.gov is the U.S. government's official web portal to all federal, state and local government web resources and services.